METAR Data
IDs: Format: Raw Decoded Include TAF

Data at: 2107 UTC 24 Mar 2019

KPEQ 242055Z AUTO 24007G12KT 10SM CLR 29/M06 A3000 RMK AO2 T02861058
KPEQ 242035Z AUTO 24007KT 10SM CLR 28/M06 A3002 RMK AO2 T02771058
KPEQ 242015Z AUTO 27016G21KT 10SM CLR 28/M06 A3002 RMK AO2 T02831057
KPEQ 241955Z AUTO 26012G19KT 10SM CLR 28/M05 A3004 RMK AO2 T02821055
KPEQ 241935Z AUTO 28010G17KT 10SM CLR 27/M06 A3005 RMK AO2 T02741061
KPEQ 241915Z AUTO 26011G16KT 10SM CLR 27/M06 A3006 RMK AO2 T02731056
KPEQ 241855Z AUTO 28012G20KT 10SM CLR 27/M05 A3007 RMK AO2 T02711052
KPEQ 241835Z AUTO 27017G26KT 10SM CLR 27/M05 A3008 RMK AO2 T02711051
KPEQ 241815Z AUTO 27014G19KT 10SM CLR 27/M05 A3008 RMK AO2 T02661049
KPEQ 241755Z AUTO 26016G23KT 10SM CLR 26/M05 A3009 RMK AO2 T02621049 10265 20046
KPEQ 241735Z AUTO 28015G19KT 10SM CLR 26/M04 A3009 RMK AO2 T02631044
KPEQ 241715Z AUTO 28004KT 10SM CLR 24/M02 A3009 RMK AO2 T02371017
KPEQ 241655Z AUTO 00000KT 10SM CLR 22/M02 A3010 RMK AO2 T02191018
KPEQ 241635Z AUTO 07003KT 10SM CLR 21/M02 A3011 RMK AO2 T02091022
KPEQ 241615Z AUTO 09003KT 10SM CLR 19/M02 A3011 RMK AO2 T01941019
KPEQ 241555Z AUTO 00000KT 10SM CLR 18/M03 A3011 RMK AO2 T01801029
KPEQ 241535Z AUTO 12003KT 10SM CLR 17/M03 A3011 RMK AO2 T01731033
KPEQ 241515Z AUTO 00000KT 10SM CLR 17/M03 A3010 RMK AO2 T01661035
KPEQ 241455Z AUTO 00000KT 10SM CLR 15/M04 A3009 RMK AO2 T01541041
KPEQ 241435Z AUTO 32004KT 10SM CLR 14/M04 A3008 RMK AO2 T01401041
KPEQ 241415Z AUTO 35004KT 10SM CLR 12/M02 A3007 RMK AO2 T01211022
KPEQ 241355Z AUTO 00000KT 10SM CLR 09/00 A3007 RMK AO2 T00861001
KPEQ 241335Z AUTO 00000KT 10SM CLR 07/M01 A3006 RMK AO2 T00701008
KPEQ 241315Z AUTO 00000KT 10SM CLR 06/M01 A3005 RMK AO2 T00561015
KPEQ 241255Z AUTO 22005KT 10SM CLR 05/M01 A3004 RMK AO2 T00511015
KPEQ 241235Z AUTO 20005KT 10SM CLR 05/M02 A3004 RMK AO2 T00491017
KPEQ 241215Z AUTO 15007KT 10SM CLR 05/M03 A3004 RMK AO2 T00531027
KPEQ 241155Z AUTO 00000KT 10SM CLR 06/M03 A3003 RMK AO2 T00581029 10102 20053
KPEQ 241135Z AUTO 00000KT 10SM CLR 06/M03 A3003 RMK AO2 T00561031
KPEQ 241115Z AUTO 19003KT 10SM CLR 05/M03 A3003 RMK AO2 T00541031
KPEQ 241055Z AUTO 25003KT 10SM CLR 07/M03 A3003 RMK AO2 T00661029
KPEQ 241035Z AUTO 00000KT 10SM CLR 07/M03 A3003 RMK AO2 T00721030
KPEQ 241015Z AUTO 20006KT 10SM CLR 08/M03 A3003 RMK AO2 T00761030
KPEQ 240955Z AUTO 21004KT 10SM CLR 07/M03 A3003 RMK AO2 T00721030
KPEQ 240935Z AUTO 22003KT 10SM CLR 08/M03 A3003 RMK AO2 T00751027
KPEQ 240915Z AUTO 24006KT 10SM CLR 08/M02 A3003 RMK AO2 T00781025
KPEQ 240855Z AUTO 26005KT 10SM CLR 09/M03 A3003 RMK AO2 T00901026
KPEQ 240835Z AUTO 24005KT 10SM CLR 08/M02 A3003 RMK AO2 T00841018
KPEQ 240815Z AUTO 22006KT 10SM CLR 10/M01 A3003 RMK AO2 T01001015
KPEQ 240755Z AUTO 22008KT 10SM CLR 10/M01 A3002 RMK AO2 T01001015
KPEQ 240735Z AUTO 24006KT 10SM CLR 10/M02 A3002 RMK AO2 T00971016
KPEQ 240715Z AUTO 22005KT 10SM CLR 10/M02 A3002 RMK AO2 T01021024
KPEQ 240655Z AUTO 21007KT 10SM CLR 10/M03 A3002 RMK AO2 T00961031
KPEQ 240635Z AUTO 18006KT 10SM CLR 10/M03 A3003 RMK AO2 T00991031
KPEQ 240615Z AUTO 16007KT 10SM CLR 10/M03 A3003 RMK AO2 T00961030
KPEQ 240555Z AUTO 14005KT 10SM CLR 11/M04 A3003 RMK AO2 T01081042 10254 20108 402670072
KPEQ 240535Z AUTO 00000KT 10SM CLR 13/M04 A3003 RMK AO2 T01301045
KPEQ 240515Z AUTO 00000KT 10SM CLR 13/M04 A3003 RMK AO2 T01301041
KPEQ 240455Z AUTO 22004KT 10SM CLR 12/M03 A3002 RMK AO2 T01201035
KPEQ 240435Z AUTO 23005KT 10SM CLR 13/M03 A3002 RMK AO2 T01281035
KPEQ 240415Z AUTO 24004KT 10SM CLR 14/M04 A3002 RMK AO2 T01371041
KPEQ 240355Z AUTO 28004KT 10SM CLR 13/M04 A3002 RMK AO2 T01341039
KPEQ 240335Z AUTO 28005KT 10SM CLR 15/M04 A3002 RMK AO2 T01521041
KPEQ 240315Z AUTO 29007KT 10SM CLR 16/M04 A3000 RMK AO2 T01591042
KPEQ 240255Z AUTO 25004KT 10SM CLR 17/M05 A2999 RMK AO2 T01671047
KPEQ 240235Z AUTO 25004KT 10SM CLR 17/M05 A2998 RMK AO2 T01721052
KPEQ 240215Z AUTO 24006KT 10SM CLR 19/M05 A2998 RMK AO2 T01851055
KPEQ 240155Z AUTO 25009KT 10SM CLR 19/M05 A2997 RMK AO2 T01941055
KPEQ 240135Z AUTO 23006KT 10SM CLR 20/M06 A2996 RMK AO2 T02041058
KPEQ 240115Z AUTO 23006KT 10SM CLR 22/M06 A2996 RMK AO2 T02151056
KPEQ 240055Z AUTO 22007KT 10SM CLR 23/M06 A2995 RMK AO2 T02331062
KPEQ 240035Z AUTO 23009KT 10SM CLR 25/M07 A2995 RMK AO2 T02451072
KPEQ 240015Z AUTO 24009KT 10SM CLR 25/M08 A2995 RMK AO2 T02511085
KPEQ 232355Z AUTO 23012KT 10SM CLR 25/M08 A2995 RMK AO2 T02521085 10267 20212
KPEQ 232335Z AUTO 24010KT 10SM CLR 25/M08 A2995 RMK AO2 T02521080
KPEQ 232315Z AUTO 24011KT 10SM CLR 26/M08 A2995 RMK AO2 T02551078
KPEQ 232255Z AUTO 22010G17KT 10SM CLR 26/M08 A2995 RMK AO2 T02591076
KPEQ 232235Z AUTO 23009G18KT 10SM CLR 26/M08 A2996 RMK AO2 T02641077
KPEQ 232215Z AUTO 23013G19KT 10SM CLR 27/M07 A2996 RMK AO2 T02651071
KPEQ 232155Z AUTO 26008G14KT 10SM CLR 26/M06 A2997 RMK AO2 T02581062
KPEQ 232135Z AUTO 23007G14KT 10SM CLR 26/M06 A2998 RMK AO2 T02571061
KPEQ 232115Z AUTO 25009G15KT 10SM CLR 26/M06 A2998 RMK AO2 T02571063
KPEQ 232055Z AUTO 24013G17KT 10SM CLR 26/M07 A2999 RMK AO2 T02561068
KPEQ 232035Z AUTO 26010G22KT 10SM CLR 25/M07 A3000 RMK AO2 T02521069
KPEQ 232015Z AUTO 27007G18KT 10SM CLR 25/M07 A3000 RMK AO2 T02511073
KPEQ 231955Z AUTO 26015G21KT 10SM CLR 25/M07 A3001 RMK AO2 T02511071
KPEQ 231935Z AUTO 29009KT 10SM CLR 24/M05 A3002 RMK AO2 T02401052
KPEQ 231915Z AUTO 00000KT 10SM CLR 23/M05 A3002 RMK AO2 T02281055
KPEQ 231855Z AUTO 26003KT 10SM CLR 22/M05 A3004 RMK AO2 T02201047
KPEQ 231835Z AUTO 00000KT 10SM CLR 22/M05 A3005 RMK AO2 T02181054
KPEQ 231815Z AUTO 25005KT 10SM CLR 22/M05 A3006 RMK AO2 T02151050
KPEQ 231755Z AUTO 00000KT 10SM CLR 21/M05 A3007 RMK AO2 T02081047 10209 20078
KPEQ 231735Z AUTO 28003KT 10SM CLR 20/M04 A3007 RMK AO2 T02041045
KPEQ 231715Z AUTO 00000KT 10SM CLR 20/M05 A3008 RMK AO2 T01991048
KPEQ 231655Z AUTO 00000KT 10SM CLR 20/M05 A3009 RMK AO2 T01991046
KPEQ 231635Z AUTO 00000KT 10SM CLR 19/M04 A3009 RMK AO2 T01941043
KPEQ 231615Z AUTO 35003KT 10SM CLR 19/M04 A3009 RMK AO2 T01851044
KPEQ 231555Z AUTO 29003KT 10SM CLR 19/M04 A3009 RMK AO2 T01851037
KPEQ 231535Z AUTO 33004KT 10SM CLR 18/M04 A3009 RMK AO2 T01781036
KPEQ 231515Z AUTO 31006KT 10SM CLR 17/M03 A3009 RMK AO2 T01711035
KPEQ 231455Z AUTO 29005KT 10SM CLR 16/M03 A3009 RMK AO2 T01581026
KPEQ 231430Z AUTO 28005KT 10SM CLR 13/M02 A3008 RMK AO2 T01331024
KPEQ 231415Z AUTO 28007KT 10SM CLR 12/M03 A3007 RMK AO2 T01241031
KPEQ 231355Z AUTO 29003KT 10SM CLR 10/M02 A3007 RMK AO2 T01001021
KPEQ 231335Z AUTO 27006KT 10SM CLR 08/M03 A3005 RMK AO2 T00811026
KPEQ 231315Z AUTO 27006KT 10SM CLR 08/M03 A3005 RMK AO2 T00841035
KPEQ 231255Z AUTO 28008KT 10SM CLR 09/M04 A3004 RMK AO2 T00851038
KPEQ 231235Z AUTO 27009KT 10SM CLR 09/M04 A3003 RMK AO2 T00891038
KPEQ 231215Z AUTO 27010KT 10SM CLR 10/M04 A3002 RMK AO2 T00971040
KPEQ 231155Z AUTO 28009KT 10SM CLR 09/M03 A3002 RMK AO2 T00861035 10123 20072
KPEQ 231135Z AUTO 27007KT 10SM CLR 08/M03 A3001 RMK AO2 T00751028
KPEQ 231115Z AUTO 28007KT 10SM CLR 10/M03 A3001 RMK AO2 T00961035
KPEQ 231055Z AUTO 32005KT 10SM CLR 09/M02 A3000 RMK AO2 T00881022
KPEQ 231035Z AUTO 26009KT 10SM CLR 09/M02 A2999 RMK AO2 T00921024
KPEQ 231015Z AUTO 25010KT 10SM CLR 10/M02 A2999 RMK AO2 T00981021
KPEQ 230955Z AUTO 25008KT 10SM CLR 10/M01 A2998 RMK AO2 T00951010
KPEQ 230935Z AUTO 26008KT 10SM CLR 09/00 A2999 RMK AO2 T00850000
KPEQ 230915Z AUTO 25007KT 10SM CLR 10/00 A2999 RMK AO2 T00961004